Wind From: 13-12-2017 10:08 Until: 14-12-2017 06:00 warning for: Wind Level: Yellow info button

Although rather usual in this region, locally or potentially dangerous phenomena are expected. (such as local winds, summer thunderstorms, rising streams or high waves) Be aware and pay attention to the latest weather updates, especially if you carry out activities exposed to weather or close to a stream or shoreline. 


Meteo18 Weather Cam more information Meteo18 Weather Cam


Thunder radar more information blitzortung!


Rain radar more information rain snow radar


Visit our other weather sites:

Template documentation
and downloads

And another site



Weather Underground History page Text

Daily Summary for September 28, 2017 Units:  Both    English   Metric
« Previous Day
Next Day »
Daily Weekly Monthly Yearly Custom
  High: Low: Average:
Temperature: 74.8 °F /  23.8 °C 53.2 °F /  11.8 °C 62.4 °F /  16.9 °C
Dew Point: 61.3 °F /  16.3 °C 52.2 °F /  11.2 °C 57.2 °F /  14 °C
Humidity: 97 % 60 % 84 %
Wind Speed: 8 mph /  12.9 km/h - 1.1 mph /  1.8 km/h
Wind Gust: 10 mph /  16.1 km/h - -
Wind:- - SW
Pressure: 30.3 in /  1024.6 hPa 30.2 in /  1021.9 hPa -
Precipitation: 0 in /  0.0 mm    
Historical Graphs
 
 
Tabular Data for September 28, 2017
Time Temperature Dew Point Pressure Wind Wind Speed Wind Gust Humidity Rainfall Rate (Hourly)
00:02 58.6 °F /  14.8 °C 55.9 °F /  13.3 °C 30.2 in /  1021.9 hPa Calm   1 mph /  1.6 km/h 91 % 0 in /  0.0 mm
00:12 58.5 °F /  14.7 °C 56.5 °F /  13.6 °C 30.2 in /  1021.9 hPa Calm   1 mph /  1.6 km/h 93 % 0 in /  0.0 mm
00:17 58.6 °F /  14.8 °C 56.7 °F /  13.7 °C 30.2 in /  1021.9 hPa Calm   1 mph /  1.6 km/h 93 % 0 in /  0.0 mm
00:22 58.8 °F /  14.9 °C 56.8 °F /  13.8 °C 30.2 in /  1021.9 hPa Calm     93 % 0 in /  0.0 mm
00:27 59.2 °F /  15.1 °C 57.2 °F /  14.0 °C 30.2 in /  1021.9 hPa SE 1 mph /  1.6 km/h   93 % 0 in /  0.0 mm
00:32 59.5 °F /  15.3 °C 57.2 °F /  14.0 °C 30.2 in /  1021.9 hPa Calm   2 mph /  3.2 km/h 92 % 0 in /  0.0 mm
00:42 59.2 °F /  15.1 °C 56.5 °F /  13.6 °C 30.2 in /  1021.9 hPa Calm   2 mph /  3.2 km/h 91 % 0 in /  0.0 mm
00:52 59 °F /  15.0 °C 56.3 °F /  13.5 °C 30.2 in /  1022.2 hPa Calm     91 % 0 in /  0.0 mm
00:57 58.5 °F /  14.7 °C 55.8 °F /  13.2 °C 30.2 in /  1021.9 hPa SE 1 mph /  1.6 km/h 1 mph /  1.6 km/h 91 % 0 in /  0.0 mm
01:02 58.6 °F /  14.8 °C 56.3 °F /  13.5 °C 30.2 in /  1022.2 hPa SE 1 mph /  1.6 km/h 1 mph /  1.6 km/h 92 % 0 in /  0.0 mm
01:12 58.6 °F /  14.8 °C 56.3 °F /  13.5 °C 30.2 in /  1022.2 hPa SE 1 mph /  1.6 km/h 1 mph /  1.6 km/h 92 % 0 in /  0.0 mm
01:17 58.6 °F /  14.8 °C 56.3 °F /  13.5 °C 30.2 in /  1021.9 hPa SE 1 mph /  1.6 km/h 1 mph /  1.6 km/h 92 % 0 in /  0.0 mm
01:22 58.5 °F /  14.7 °C 55.8 °F /  13.2 °C 30.2 in /  1021.9 hPa Calm   1 mph /  1.6 km/h 91 % 0 in /  0.0 mm
01:32 57.9 °F /  14.4 °C 55.6 °F /  13.1 °C 30.2 in /  1022.2 hPa WNW 1 mph /  1.6 km/h 2 mph /  3.2 km/h 92 % 0 in /  0.0 mm
01:42 57.7 °F /  14.3 °C 55.9 °F /  13.3 °C 30.2 in /  1021.9 hPa Calm   2 mph /  3.2 km/h 94 % 0 in /  0.0 mm
01:47 57.6 °F /  14.2 °C 55.6 °F /  13.1 °C 30.2 in /  1022.2 hPa WNW 1 mph /  1.6 km/h 2 mph /  3.2 km/h 93 % 0 in /  0.0 mm
01:52 57.2 °F /  14.0 °C 55.4 °F /  13.0 °C 30.2 in /  1022.2 hPa WNW 1 mph /  1.6 km/h 2 mph /  3.2 km/h 94 % 0 in /  0.0 mm
01:57 57 °F /  13.9 °C 55.2 °F /  12.9 °C 30.2 in /  1022.2 hPa Calm   2 mph /  3.2 km/h 94 % 0 in /  0.0 mm
02:02 56.8 °F /  13.8 °C 55.2 °F /  12.9 °C 30.2 in /  1022.2 hPa Calm   2 mph /  3.2 km/h 94 % 0 in /  0.0 mm
02:12 57.6 °F /  14.2 °C 56.1 °F /  13.4 °C 30.2 in /  1022.2 hPa Calm   2 mph /  3.2 km/h 95 % 0 in /  0.0 mm
02:17 57 °F /  13.9 °C 55.2 °F /  12.9 °C 30.2 in /  1022.2 hPa Calm   1 mph /  1.6 km/h 94 % 0 in /  0.0 mm
02:22 56.3 °F /  13.5 °C 54.7 °F /  12.6 °C 30.2 in /  1022.2 hPa Calm   1 mph /  1.6 km/h 94 % 0 in /  0.0 mm
02:27 56.1 °F /  13.4 °C 54.7 °F /  12.6 °C 30.2 in /  1022.2 hPa Calm   1 mph /  1.6 km/h 95 % 0 in /  0.0 mm
02:32 56.3 °F /  13.5 °C 54.9 °F /  12.7 °C 30.2 in /  1022.2 hPa Calm   1 mph /  1.6 km/h 95 % 0 in /  0.0 mm
02:37 56.7 °F /  13.7 °C 55.6 °F /  13.1 °C 30.2 in /  1022.2 hPa Calm   1 mph /  1.6 km/h 96 % 0 in /  0.0 mm
02:42 56.7 °F /  13.7 °C 55.2 °F /  12.9 °C 30.2 in /  1022.2 hPa Calm   1 mph /  1.6 km/h 95 % 0 in /  0.0 mm
02:47 56.1 °F /  13.4 °C 54.5 °F /  12.5 °C 30.2 in /  1022.2 hPa Calm     94 % 0 in /  0.0 mm
02:52 55.8 °F /  13.2 °C 54.3 °F /  12.4 °C 30.2 in /  1022.2 hPa Calm     95 % 0 in /  0.0 mm
02:57 55.8 °F /  13.2 °C 54.3 °F /  12.4 °C 30.2 in /  1022.6 hPa Calm     95 % 0 in /  0.0 mm
03:02 55.2 °F /  12.9 °C 53.8 °F /  12.1 °C 30.2 in /  1022.2 hPa Calm     95 % 0 in /  0.0 mm
03:12 55.2 °F /  12.9 °C 54.1 °F /  12.3 °C 30.2 in /  1022.6 hPa Calm   1 mph /  1.6 km/h 96 % 0 in /  0.0 mm
03:17 55.4 °F /  13.0 °C 54.3 °F /  12.4 °C 30.2 in /  1022.2 hPa Calm     96 % 0 in /  0.0 mm
03:22 55.2 °F /  12.9 °C 54.1 °F /  12.3 °C 30.2 in /  1022.2 hPa Calm     96 % 0 in /  0.0 mm
03:27 55.4 °F /  13.0 °C 54.3 °F /  12.4 °C 30.2 in /  1022.2 hPa Calm     96 % 0 in /  0.0 mm
03:32 55 °F /  12.8 °C 53.6 °F /  12.0 °C 30.2 in /  1022.6 hPa Calm     95 % 0 in /  0.0 mm
03:42 54.9 °F /  12.7 °C 53.8 °F /  12.1 °C 30.2 in /  1022.2 hPa Calm     96 % 0 in /  0.0 mm
03:47 55 °F /  12.8 °C 54 °F /  12.2 °C 30.2 in /  1022.2 hPa Calm     96 % 0 in /  0.0 mm
03:52 54.9 °F /  12.7 °C 53.8 °F /  12.1 °C 30.2 in /  1022.2 hPa Calm     96 % 0 in /  0.0 mm
03:57 54.3 °F /  12.4 °C 52.9 °F /  11.6 °C 30.2 in /  1022.2 hPa Calm   1 mph /  1.6 km/h 95 % 0 in /  0.0 mm
04:02 54.1 °F /  12.3 °C 53.1 °F /  11.7 °C 30.2 in /  1022.2 hPa Calm   1 mph /  1.6 km/h 96 % 0 in /  0.0 mm
04:12 54.5 °F /  12.5 °C 53.6 °F /  12.0 °C 30.2 in /  1022.6 hPa Calm   1 mph /  1.6 km/h 97 % 0 in /  0.0 mm
04:17 54.1 °F /  12.3 °C 53.1 °F /  11.7 °C 30.2 in /  1022.6 hPa Calm     96 % 0 in /  0.0 mm
04:22 54 °F /  12.2 °C 52.9 °F /  11.6 °C 30.2 in /  1022.6 hPa Calm     96 % 0 in /  0.0 mm
04:27 54.1 °F /  12.3 °C 53.1 °F /  11.7 °C 30.2 in /  1022.6 hPa Calm     96 % 0 in /  0.0 mm
04:32 54.5 °F /  12.5 °C 53.6 °F /  12.0 °C 30.2 in /  1022.6 hPa Calm     97 % 0 in /  0.0 mm
04:37 54.9 °F /  12.7 °C 54 °F /  12.2 °C 30.2 in /  1022.9 hPa Calm     97 % 0 in /  0.0 mm
04:42 54.9 °F /  12.7 °C 54 °F /  12.2 °C 30.2 in /  1022.9 hPa Calm     97 % 0 in /  0.0 mm
04:47 55.2 °F /  12.9 °C 54.3 °F /  12.4 °C 30.2 in /  1022.9 hPa Calm     97 % 0 in /  0.0 mm
04:52 55.4 °F /  13.0 °C 54.5 °F /  12.5 °C 30.2 in /  1022.9 hPa Calm     97 % 0 in /  0.0 mm
05:02 55.4 °F /  13.0 °C 54.5 °F /  12.5 °C 30.2 in /  1022.9 hPa Calm     97 % 0 in /  0.0 mm
05:12 55.2 °F /  12.9 °C 54.1 °F /  12.3 °C 30.2 in /  1022.9 hPa Calm     96 % 0 in /  0.0 mm
05:17 55 °F /  12.8 °C 54 °F /  12.2 °C 30.2 in /  1022.9 hPa Calm     96 % 0 in /  0.0 mm
05:22 54.9 °F /  12.7 °C 53.8 °F /  12.1 °C 30.2 in /  1022.9 hPa Calm     96 % 0 in /  0.0 mm
05:27 54.3 °F /  12.4 °C 53.2 °F /  11.8 °C 30.2 in /  1022.9 hPa Calm     96 % 0 in /  0.0 mm
05:32 53.8 °F /  12.1 °C 52.3 °F /  11.3 °C 30.2 in /  1022.9 hPa Calm     95 % 0 in /  0.0 mm
05:42 53.2 °F /  11.8 °C 52.2 °F /  11.2 °C 30.2 in /  1022.9 hPa Calm     96 % 0 in /  0.0 mm
05:47 53.4 °F /  11.9 °C 52.5 °F /  11.4 °C 30.2 in /  1022.9 hPa Calm     97 % 0 in /  0.0 mm
05:52 54 °F /  12.2 °C 53.1 °F /  11.7 °C 30.2 in /  1022.9 hPa Calm     97 % 0 in /  0.0 mm
05:57 54.1 °F /  12.3 °C 53.2 °F /  11.8 °C 30.2 in /  1022.9 hPa Calm     97 % 0 in /  0.0 mm
06:02 54.3 °F /  12.4 °C 53.4 °F /  11.9 °C 30.2 in /  1022.9 hPa Calm     97 % 0 in /  0.0 mm
06:12 54.7 °F /  12.6 °C 53.8 °F /  12.1 °C 30.2 in /  1023.2 hPa Calm     97 % 0 in /  0.0 mm
06:17 54.7 °F /  12.6 °C 53.8 °F /  12.1 °C 30.2 in /  1023.2 hPa Calm     97 % 0 in /  0.0 mm
06:22 54.7 °F /  12.6 °C 53.8 °F /  12.1 °C 30.2 in /  1023.2 hPa Calm     97 % 0 in /  0.0 mm
06:32 54.7 °F /  12.6 °C 53.8 °F /  12.1 °C 30.2 in /  1023.2 hPa Calm     97 % 0 in /  0.0 mm
06:37 54.7 °F /  12.6 °C 53.8 °F /  12.1 °C 30.2 in /  1023.2 hPa Calm     97 % 0 in /  0.0 mm
06:42 54.7 °F /  12.6 °C 53.8 °F /  12.1 °C 30.2 in /  1023.2 hPa Calm     97 % 0 in /  0.0 mm
06:52 54.3 °F /  12.4 °C 53.4 °F /  11.9 °C 30.2 in /  1023.2 hPa Calm     97 % 0 in /  0.0 mm
06:57 54.3 °F /  12.4 °C 53.4 °F /  11.9 °C 30.2 in /  1023.2 hPa Calm     97 % 0 in /  0.0 mm
07:02 54.3 °F /  12.4 °C 53.4 °F /  11.9 °C 30.2 in /  1023.2 hPa Calm     97 % 0 in /  0.0 mm
07:12 54.3 °F /  12.4 °C 53.4 °F /  11.9 °C 30.2 in /  1023.2 hPa Calm     97 % 0 in /  0.0 mm
07:17 54.3 °F /  12.4 °C 53.4 °F /  11.9 °C 30.2 in /  1023.2 hPa Calm     97 % 0 in /  0.0 mm
07:22 54.1 °F /  12.3 °C 53.2 °F /  11.8 °C 30.2 in /  1023.2 hPa Calm     97 % 0 in /  0.0 mm
07:32 54.3 °F /  12.4 °C 53.4 °F /  11.9 °C 30.2 in /  1023.2 hPa Calm     97 % 0 in /  0.0 mm
07:42 54.3 °F /  12.4 °C 53.4 °F /  11.9 °C 30.2 in /  1023.6 hPa NNE 2 mph /  3.2 km/h   97 % 0 in /  0.0 mm
07:47 54.1 °F /  12.3 °C 53.2 °F /  11.8 °C 30.2 in /  1023.6 hPa NNE 1 mph /  1.6 km/h 2 mph /  3.2 km/h 97 % 0 in /  0.0 mm
07:52 54.3 °F /  12.4 °C 53.4 °F /  11.9 °C 30.2 in /  1023.6 hPa Calm   2 mph /  3.2 km/h 97 % 0 in /  0.0 mm
08:02 54.1 °F /  12.3 °C 53.2 °F /  11.8 °C 30.2 in /  1023.6 hPa Calm   2 mph /  3.2 km/h 97 % 0 in /  0.0 mm
08:12 54.3 °F /  12.4 °C 53.4 °F /  11.9 °C 30.2 in /  1023.6 hPa Calm   1 mph /  1.6 km/h 97 % 0 in /  0.0 mm
08:17 54.1 °F /  12.3 °C 53.2 °F /  11.8 °C 30.2 in /  1023.6 hPa Calm   1 mph /  1.6 km/h 97 % 0 in /  0.0 mm
08:22 54.3 °F /  12.4 °C 53.4 °F /  11.9 °C 30.2 in /  1023.6 hPa Calm   1 mph /  1.6 km/h 97 % 0 in /  0.0 mm
08:32 54.3 °F /  12.4 °C 53.4 °F /  11.9 °C 30.2 in /  1023.9 hPa Calm   1 mph /  1.6 km/h 97 % 0 in /  0.0 mm
08:37 54.3 °F /  12.4 °C 53.4 °F /  11.9 °C 30.2 in /  1023.9 hPa Calm     97 % 0 in /  0.0 mm
08:42 54.5 °F /  12.5 °C 53.6 °F /  12.0 °C 30.2 in /  1023.9 hPa Calm     97 % 0 in /  0.0 mm
08:47 54.7 °F /  12.6 °C 53.8 °F /  12.1 °C 30.2 in /  1023.9 hPa Calm     97 % 0 in /  0.0 mm
08:52 54.9 °F /  12.7 °C 54 °F /  12.2 °C 30.2 in /  1023.9 hPa Calm     97 % 0 in /  0.0 mm
09:02 54.9 °F /  12.7 °C 54 °F /  12.2 °C 30.2 in /  1023.9 hPa Calm   1 mph /  1.6 km/h 97 % 0 in /  0.0 mm
09:12 55 °F /  12.8 °C 54.1 °F /  12.3 °C 30.2 in /  1023.9 hPa Calm   1 mph /  1.6 km/h 97 % 0 in /  0.0 mm
09:17 55.2 °F /  12.9 °C 54.3 °F /  12.4 °C 30.3 in /  1024.3 hPa Calm   1 mph /  1.6 km/h 97 % 0 in /  0.0 mm
09:22 55.6 °F /  13.1 °C 54.7 °F /  12.6 °C 30.3 in /  1024.3 hPa Calm   1 mph /  1.6 km/h 97 % 0 in /  0.0 mm
09:32 55.9 °F /  13.3 °C 55 °F /  12.8 °C 30.3 in /  1024.3 hPa Calm   1 mph /  1.6 km/h 97 % 0 in /  0.0 mm
09:37 55.9 °F /  13.3 °C 55 °F /  12.8 °C 30.3 in /  1024.3 hPa Calm     97 % 0 in /  0.0 mm
09:42 56.5 °F /  13.6 °C 55.6 °F /  13.1 °C 30.3 in /  1024.3 hPa Calm     97 % 0 in /  0.0 mm
09:52 57 °F /  13.9 °C 56.1 °F /  13.4 °C 30.3 in /  1024.3 hPa Calm   1 mph /  1.6 km/h 97 % 0 in /  0.0 mm
10:02 57.7 °F /  14.3 °C 56.8 °F /  13.8 °C 30.3 in /  1024.3 hPa SW 1 mph /  1.6 km/h 1 mph /  1.6 km/h 97 % 0 in /  0.0 mm
10:07 58.3 °F /  14.6 °C 57.4 °F /  14.1 °C 30.3 in /  1024.3 hPa Calm   2 mph /  3.2 km/h 97 % 0 in /  0.0 mm
10:12 58.3 °F /  14.6 °C 57.2 °F /  14.0 °C 30.3 in /  1024.6 hPa SW 1 mph /  1.6 km/h 2 mph /  3.2 km/h 96 % 0 in /  0.0 mm
10:17 58.6 °F /  14.8 °C 57.6 °F /  14.2 °C 30.3 in /  1024.3 hPa Calm   4 mph /  6.4 km/h 96 % 0 in /  0.0 mm
10:22 58.8 °F /  14.9 °C 57.4 °F /  14.1 °C 30.3 in /  1024.3 hPa SW 1 mph /  1.6 km/h 4 mph /  6.4 km/h 95 % 0 in /  0.0 mm
10:27 59.4 °F /  15.2 °C 57.9 °F /  14.4 °C 30.3 in /  1024.6 hPa SW 1 mph /  1.6 km/h 4 mph /  6.4 km/h 95 % 0 in /  0.0 mm
10:32 60.1 °F /  15.6 °C 58.3 °F /  14.6 °C 30.3 in /  1024.3 hPa SSW 2 mph /  3.2 km/h 4 mph /  6.4 km/h 94 % 0 in /  0.0 mm
10:42 60.6 °F /  15.9 °C 57.7 °F /  14.3 °C 30.3 in /  1024.6 hPa SSW 1 mph /  1.6 km/h 3 mph /  4.8 km/h 90 % 0 in /  0.0 mm
10:52 61.3 °F /  16.3 °C 57.7 °F /  14.3 °C 30.3 in /  1024.3 hPa SSW 1 mph /  1.6 km/h 4 mph /  6.4 km/h 88 % 0 in /  0.0 mm
11:02 62.2 °F /  16.8 °C 58.3 °F /  14.6 °C 30.3 in /  1024.3 hPa SW 1 mph /  1.6 km/h 4 mph /  6.4 km/h 87 % 0 in /  0.0 mm
11:12 62.8 °F /  17.1 °C 58.3 °F /  14.6 °C 30.3 in /  1024.6 hPa SSW 3 mph /  4.8 km/h 4 mph /  6.4 km/h 85 % 0 in /  0.0 mm
11:17 63 °F /  17.2 °C 58.1 °F /  14.5 °C 30.3 in /  1024.6 hPa SE 1 mph /  1.6 km/h 4 mph /  6.4 km/h 84 % 0 in /  0.0 mm
11:22 63.3 °F /  17.4 °C 58.1 °F /  14.5 °C 30.3 in /  1024.6 hPa SW 5 mph /  8.0 km/h 5 mph /  8.0 km/h 83 % 0 in /  0.0 mm
11:32 64.6 °F /  18.1 °C 59 °F /  15.0 °C 30.3 in /  1024.3 hPa SSW 1 mph /  1.6 km/h 6 mph /  9.7 km/h 82 % 0 in /  0.0 mm
11:42 65.1 °F /  18.4 °C 57.4 °F /  14.1 °C 30.3 in /  1024.3 hPa WSW 6 mph /  9.7 km/h 6 mph /  9.7 km/h 76 % 0 in /  0.0 mm
11:47 65.1 °F /  18.4 °C 57.4 °F /  14.1 °C 30.3 in /  1024.3 hPa South 4 mph /  6.4 km/h 8 mph /  12.9 km/h 76 % 0 in /  0.0 mm
11:52 65.5 °F /  18.6 °C 58.1 °F /  14.5 °C 30.3 in /  1024.3 hPa SSW 4 mph /  6.4 km/h 8 mph /  12.9 km/h 77 % 0 in /  0.0 mm
11:57 65.7 °F /  18.7 °C 57.9 °F /  14.4 °C 30.3 in /  1024.3 hPa SSW 3 mph /  4.8 km/h 8 mph /  12.9 km/h 76 % 0 in /  0.0 mm
12:02 66 °F /  18.9 °C 58.3 °F /  14.6 °C 30.3 in /  1024.3 hPa SW 7 mph /  11.3 km/h 8 mph /  12.9 km/h 76 % 0 in /  0.0 mm
12:12 66.6 °F /  19.2 °C 58.1 °F /  14.5 °C 30.3 in /  1024.3 hPa SW 5 mph /  8.0 km/h 9 mph /  14.5 km/h 74 % 0 in /  0.0 mm
12:17 66.4 °F /  19.1 °C 57.4 °F /  14.1 °C 30.3 in /  1024.3 hPa SW 7 mph /  11.3 km/h 9 mph /  14.5 km/h 73 % 0 in /  0.0 mm
12:22 66.6 °F /  19.2 °C 58.8 °F /  14.9 °C 30.3 in /  1024.3 hPa WSW 3 mph /  4.8 km/h 9 mph /  14.5 km/h 76 % 0 in /  0.0 mm
12:32 67.1 °F /  19.5 °C 58.5 °F /  14.7 °C 30.3 in /  1024.3 hPa WSW 5 mph /  8.0 km/h 8 mph /  12.9 km/h 74 % 0 in /  0.0 mm
12:42 67.6 °F /  19.8 °C 58.6 °F /  14.8 °C 30.3 in /  1024.3 hPa West 3 mph /  4.8 km/h 8 mph /  12.9 km/h 73 % 0 in /  0.0 mm
12:52 68 °F /  20.0 °C 59.4 °F /  15.2 °C 30.3 in /  1024.3 hPa WSW 1 mph /  1.6 km/h 8 mph /  12.9 km/h 74 % 0 in /  0.0 mm
12:57 68.2 °F /  20.1 °C 58.8 °F /  14.9 °C 30.3 in /  1024.3 hPa Calm   6 mph /  9.7 km/h 72 % 0 in /  0.0 mm
13:02 68.5 °F /  20.3 °C 59.2 °F /  15.1 °C 30.3 in /  1024.3 hPa WNW 3 mph /  4.8 km/h 6 mph /  9.7 km/h 72 % 0 in /  0.0 mm
13:07 69.1 °F /  20.6 °C 59.7 °F /  15.4 °C 30.3 in /  1024.3 hPa SSW 4 mph /  6.4 km/h 6 mph /  9.7 km/h 72 % 0 in /  0.0 mm
13:12 69.3 °F /  20.7 °C 59.5 °F /  15.3 °C 30.3 in /  1024.3 hPa SW 2 mph /  3.2 km/h 8 mph /  12.9 km/h 71 % 0 in /  0.0 mm
13:17 69.6 °F /  20.9 °C 59 °F /  15.0 °C 30.3 in /  1024.3 hPa SW 5 mph /  8.0 km/h 8 mph /  12.9 km/h 69 % 0 in /  0.0 mm
13:22 69.6 °F /  20.9 °C 58.6 °F /  14.8 °C 30.3 in /  1024.3 hPa SW 4 mph /  6.4 km/h 9 mph /  14.5 km/h 68 % 0 in /  0.0 mm
13:32 69.6 °F /  20.9 °C 59.4 °F /  15.2 °C 30.2 in /  1023.9 hPa SSW 1 mph /  1.6 km/h 9 mph /  14.5 km/h 70 % 0 in /  0.0 mm
13:37 69.6 °F /  20.9 °C 58.6 °F /  14.8 °C 30.2 in /  1023.9 hPa SW 5 mph /  8.0 km/h 9 mph /  14.5 km/h 68 % 0 in /  0.0 mm
13:42 69.4 °F /  20.8 °C 58.8 °F /  14.9 °C 30.2 in /  1023.9 hPa SSW 4 mph /  6.4 km/h 9 mph /  14.5 km/h 69 % 0 in /  0.0 mm
13:52 69.4 °F /  20.8 °C 59.5 °F /  15.3 °C 30.2 in /  1023.9 hPa SW 2 mph /  3.2 km/h 9 mph /  14.5 km/h 71 % 0 in /  0.0 mm
14:02 70.2 °F /  21.2 °C 59.5 °F /  15.3 °C 30.2 in /  1023.9 hPa SSE 3 mph /  4.8 km/h 8 mph /  12.9 km/h 69 % 0 in /  0.0 mm
14:12 70.5 °F /  21.4 °C 59.9 °F /  15.5 °C 30.2 in /  1023.9 hPa SSW 4 mph /  6.4 km/h 8 mph /  12.9 km/h 69 % 0 in /  0.0 mm
14:22 70.2 °F /  21.2 °C 59.2 °F /  15.1 °C 30.2 in /  1023.9 hPa SW 3 mph /  4.8 km/h 8 mph /  12.9 km/h 68 % 0 in /  0.0 mm
14:32 70.5 °F /  21.4 °C 59.9 °F /  15.5 °C 30.2 in /  1023.9 hPa SW 4 mph /  6.4 km/h 8 mph /  12.9 km/h 69 % 0 in /  0.0 mm
14:42 70.9 °F /  21.6 °C 59.4 °F /  15.2 °C 30.2 in /  1023.9 hPa SW 2 mph /  3.2 km/h 10 mph /  16.1 km/h 67 % 0 in /  0.0 mm
14:47 71.1 °F /  21.7 °C 59.5 °F /  15.3 °C 30.2 in /  1023.9 hPa SSW 4 mph /  6.4 km/h 10 mph /  16.1 km/h 67 % 0 in /  0.0 mm
14:52 71.4 °F /  21.9 °C 59.9 °F /  15.5 °C 30.2 in /  1023.9 hPa SSW 2 mph /  3.2 km/h 9 mph /  14.5 km/h 67 % 0 in /  0.0 mm
14:57 71.8 °F /  22.1 °C 60.6 °F /  15.9 °C 30.2 in /  1023.9 hPa WSW 3 mph /  4.8 km/h 9 mph /  14.5 km/h 68 % 0 in /  0.0 mm
15:02 72.3 °F /  22.4 °C 60.3 °F /  15.7 °C 30.2 in /  1023.9 hPa South 3 mph /  4.8 km/h 8 mph /  12.9 km/h 66 % 0 in /  0.0 mm
15:12 72.9 °F /  22.7 °C 61.3 °F /  16.3 °C 30.2 in /  1023.9 hPa SSW 4 mph /  6.4 km/h 8 mph /  12.9 km/h 67 % 0 in /  0.0 mm
15:17 72.9 °F /  22.7 °C 59.9 °F /  15.5 °C 30.2 in /  1023.9 hPa WSW 7 mph /  11.3 km/h 8 mph /  12.9 km/h 64 % 0 in /  0.0 mm
15:22 72.7 °F /  22.6 °C 59.4 °F /  15.2 °C 30.2 in /  1023.9 hPa SSW 4 mph /  6.4 km/h 10 mph /  16.1 km/h 63 % 0 in /  0.0 mm
15:27 72.7 °F /  22.6 °C 58.8 °F /  14.9 °C 30.2 in /  1023.9 hPa SW 3 mph /  4.8 km/h 10 mph /  16.1 km/h 62 % 0 in /  0.0 mm
15:32 72.3 °F /  22.4 °C 59 °F /  15.0 °C 30.2 in /  1023.9 hPa SSW 7 mph /  11.3 km/h 10 mph /  16.1 km/h 63 % 0 in /  0.0 mm
15:42 72.9 °F /  22.7 °C 59.9 °F /  15.5 °C 30.2 in /  1023.9 hPa South 1 mph /  1.6 km/h 9 mph /  14.5 km/h 64 % 0 in /  0.0 mm
15:52 73.2 °F /  22.9 °C 60.3 °F /  15.7 °C 30.2 in /  1023.6 hPa SW 3 mph /  4.8 km/h 9 mph /  14.5 km/h 64 % 0 in /  0.0 mm
15:57 73.2 °F /  22.9 °C 59.9 °F /  15.5 °C 30.2 in /  1023.6 hPa South 3 mph /  4.8 km/h 6 mph /  9.7 km/h 63 % 0 in /  0.0 mm
16:02 73 °F /  22.8 °C 59.7 °F /  15.4 °C 30.2 in /  1023.6 hPa SW 2 mph /  3.2 km/h 6 mph /  9.7 km/h 63 % 0 in /  0.0 mm
16:07 73.2 °F /  22.9 °C 60.3 °F /  15.7 °C 30.2 in /  1023.6 hPa SSE 4 mph /  6.4 km/h 8 mph /  12.9 km/h 64 % 0 in /  0.0 mm
16:12 73.2 °F /  22.9 °C 60.3 °F /  15.7 °C 30.2 in /  1023.6 hPa SSW 5 mph /  8.0 km/h 8 mph /  12.9 km/h 64 % 0 in /  0.0 mm
16:17 73.2 °F /  22.9 °C 59.9 °F /  15.5 °C 30.2 in /  1023.6 hPa Calm   8 mph /  12.9 km/h 63 % 0 in /  0.0 mm
16:22 73.2 °F /  22.9 °C 59.9 °F /  15.5 °C 30.2 in /  1023.6 hPa WSW 2 mph /  3.2 km/h 8 mph /  12.9 km/h 63 % 0 in /  0.0 mm
16:27 73 °F /  22.8 °C 59.7 °F /  15.4 °C 30.2 in /  1023.6 hPa WSW 4 mph /  6.4 km/h 8 mph /  12.9 km/h 63 % 0 in /  0.0 mm
16:32 73.2 °F /  22.9 °C 59.9 °F /  15.5 °C 30.2 in /  1023.6 hPa SE 2 mph /  3.2 km/h 8 mph /  12.9 km/h 63 % 0 in /  0.0 mm
16:37 73.6 °F /  23.1 °C 60.3 °F /  15.7 °C 30.2 in /  1023.6 hPa SSW 8 mph /  12.9 km/h 10 mph /  16.1 km/h 63 % 0 in /  0.0 mm
16:42 73.6 °F /  23.1 °C 60.3 °F /  15.7 °C 30.2 in /  1023.2 hPa WSW 3 mph /  4.8 km/h 10 mph /  16.1 km/h 63 % 0 in /  0.0 mm
16:47 73.8 °F /  23.2 °C 59.5 °F /  15.3 °C 30.2 in /  1023.2 hPa SW 6 mph /  9.7 km/h 10 mph /  16.1 km/h 61 % 0 in /  0.0 mm
16:52 73.2 °F /  22.9 °C 59 °F /  15.0 °C 30.2 in /  1023.2 hPa SW 4 mph /  6.4 km/h 10 mph /  16.1 km/h 61 % 0 in /  0.0 mm
17:02 73 °F /  22.8 °C 59.7 °F /  15.4 °C 30.2 in /  1023.2 hPa West 3 mph /  4.8 km/h 10 mph /  16.1 km/h 63 % 0 in /  0.0 mm
17:12 73.4 °F /  23.0 °C 60.4 °F /  15.8 °C 30.2 in /  1023.6 hPa SW 1 mph /  1.6 km/h 10 mph /  16.1 km/h 64 % 0 in /  0.0 mm
17:17 73.6 °F /  23.1 °C 60.3 °F /  15.7 °C 30.2 in /  1023.2 hPa WSW 1 mph /  1.6 km/h 8 mph /  12.9 km/h 63 % 0 in /  0.0 mm
17:22 73.9 °F /  23.3 °C 60.6 °F /  15.9 °C 30.2 in /  1023.2 hPa WSW 3 mph /  4.8 km/h 5 mph /  8.0 km/h 63 % 0 in /  0.0 mm
17:27 73.9 °F /  23.3 °C 60.6 °F /  15.9 °C 30.2 in /  1023.2 hPa SW 4 mph /  6.4 km/h 4 mph /  6.4 km/h 63 % 0 in /  0.0 mm
17:32 73.8 °F /  23.2 °C 59.9 °F /  15.5 °C 30.2 in /  1023.2 hPa SW 2 mph /  3.2 km/h 6 mph /  9.7 km/h 62 % 0 in /  0.0 mm
17:42 74.3 °F /  23.5 °C 59.9 °F /  15.5 °C 30.2 in /  1023.6 hPa SSW 1 mph /  1.6 km/h 7 mph /  11.3 km/h 61 % 0 in /  0.0 mm
17:47 74.3 °F /  23.5 °C 60.4 °F /  15.8 °C 30.2 in /  1023.6 hPa Calm   6 mph /  9.7 km/h 62 % 0 in /  0.0 mm
17:57 74.8 °F /  23.8 °C 60.4 °F /  15.8 °C 30.2 in /  1023.6 hPa WSW 3 mph /  4.8 km/h 4 mph /  6.4 km/h 61 % 0 in /  0.0 mm
18:02 74.7 °F /  23.7 °C 60.3 °F /  15.7 °C 30.2 in /  1023.6 hPa SSW 1 mph /  1.6 km/h 4 mph /  6.4 km/h 61 % 0 in /  0.0 mm
18:07 74.7 °F /  23.7 °C 59.9 °F /  15.5 °C 30.2 in /  1023.6 hPa SSW 1 mph /  1.6 km/h 4 mph /  6.4 km/h 60 % 0 in /  0.0 mm
18:17 73.9 °F /  23.3 °C 59.7 °F /  15.4 °C 30.2 in /  1023.6 hPa SW 2 mph /  3.2 km/h 5 mph /  8.0 km/h 61 % 0 in /  0.0 mm
18:22 73.6 °F /  23.1 °C 59.4 °F /  15.2 °C 30.2 in /  1023.6 hPa WSW 3 mph /  4.8 km/h 5 mph /  8.0 km/h 61 % 0 in /  0.0 mm
18:27 73.2 °F /  22.9 °C 60.3 °F /  15.7 °C 30.2 in /  1023.6 hPa SW 1 mph /  1.6 km/h 5 mph /  8.0 km/h 64 % 0 in /  0.0 mm
18:32 73 °F /  22.8 °C 60.6 °F /  15.9 °C 30.2 in /  1023.2 hPa Calm   4 mph /  6.4 km/h 65 % 0 in /  0.0 mm
18:37 72.7 °F /  22.6 °C 60.6 °F /  15.9 °C 30.2 in /  1023.2 hPa WSW 1 mph /  1.6 km/h 4 mph /  6.4 km/h 66 % 0 in /  0.0 mm
18:42 72.3 °F /  22.4 °C 59.9 °F /  15.5 °C 30.2 in /  1023.2 hPa SW 2 mph /  3.2 km/h 2 mph /  3.2 km/h 65 % 0 in /  0.0 mm
18:52 71.8 °F /  22.1 °C 60.3 °F /  15.7 °C 30.2 in /  1023.6 hPa Calm   3 mph /  4.8 km/h 67 % 0 in /  0.0 mm
18:57 71.4 °F /  21.9 °C 60.3 °F /  15.7 °C 30.2 in /  1023.2 hPa Calm   2 mph /  3.2 km/h 68 % 0 in /  0.0 mm
19:02 71.1 °F /  21.7 °C 59.9 °F /  15.5 °C 30.2 in /  1023.6 hPa Calm   2 mph /  3.2 km/h 68 % 0 in /  0.0 mm
19:12 70.3 °F /  21.3 °C 60.4 °F /  15.8 °C 30.2 in /  1023.6 hPa Calm   1 mph /  1.6 km/h 71 % 0 in /  0.0 mm
19:17 70 °F /  21.1 °C 60.1 °F /  15.6 °C 30.2 in /  1023.6 hPa Calm     71 % 0 in /  0.0 mm
19:22 69.4 °F /  20.8 °C 60.4 °F /  15.8 °C 30.2 in /  1023.6 hPa Calm     73 % 0 in /  0.0 mm
19:32 68.2 °F /  20.1 °C 60.3 °F /  15.7 °C 30.2 in /  1023.6 hPa WNW 1 mph /  1.6 km/h   76 % 0 in /  0.0 mm
19:37 67.5 °F /  19.7 °C 59.5 °F /  15.3 °C 30.2 in /  1023.6 hPa Calm   1 mph /  1.6 km/h 76 % 0 in /  0.0 mm
19:42 67.3 °F /  19.6 °C 59.9 °F /  15.5 °C 30.2 in /  1023.6 hPa Calm   1 mph /  1.6 km/h 77 % 0 in /  0.0 mm
19:47 66.7 °F /  19.3 °C 59.7 °F /  15.4 °C 30.2 in /  1023.6 hPa WNW 1 mph /  1.6 km/h 1 mph /  1.6 km/h 78 % 0 in /  0.0 mm
19:52 66.6 °F /  19.2 °C 60.3 °F /  15.7 °C 30.2 in /  1023.6 hPa Calm   1 mph /  1.6 km/h 80 % 0 in /  0.0 mm
19:57 66.4 °F /  19.1 °C 60.4 °F /  15.8 °C 30.2 in /  1023.6 hPa Calm   1 mph /  1.6 km/h 81 % 0 in /  0.0 mm
20:02 66.2 °F /  19.0 °C 60.3 °F /  15.7 °C 30.2 in /  1023.6 hPa Calm   1 mph /  1.6 km/h 81 % 0 in /  0.0 mm
20:12 66 °F /  18.9 °C 60.1 °F /  15.6 °C 30.2 in /  1023.6 hPa Calm   1 mph /  1.6 km/h 81 % 0 in /  0.0 mm
20:17 65.8 °F /  18.8 °C 60.3 °F /  15.7 °C 30.2 in /  1023.6 hPa Calm   1 mph /  1.6 km/h 82 % 0 in /  0.0 mm
20:22 65.5 °F /  18.6 °C 60.4 °F /  15.8 °C 30.2 in /  1023.6 hPa Calm   1 mph /  1.6 km/h 84 % 0 in /  0.0 mm
20:27 65.1 °F /  18.4 °C 60.1 °F /  15.6 °C 30.2 in /  1023.6 hPa Calm   1 mph /  1.6 km/h 84 % 0 in /  0.0 mm
20:32 64.8 °F /  18.2 °C 59.9 °F /  15.5 °C 30.2 in /  1023.6 hPa Calm   1 mph /  1.6 km/h 84 % 0 in /  0.0 mm
20:42 64.8 °F /  18.2 °C 60.1 °F /  15.6 °C 30.2 in /  1023.6 hPa Calm   1 mph /  1.6 km/h 85 % 0 in /  0.0 mm
20:52 64.4 °F /  18.0 °C 59.7 °F /  15.4 °C 30.2 in /  1023.9 hPa North 1 mph /  1.6 km/h 2 mph /  3.2 km/h 85 % 0 in /  0.0 mm
20:57 64.2 °F /  17.9 °C 59.9 °F /  15.5 °C 30.2 in /  1023.9 hPa Calm   2 mph /  3.2 km/h 86 % 0 in /  0.0 mm
21:02 64 °F /  17.8 °C 59.7 °F /  15.4 °C 30.2 in /  1023.9 hPa Calm   2 mph /  3.2 km/h 86 % 0 in /  0.0 mm
21:12 63.7 °F /  17.6 °C 59.7 °F /  15.4 °C 30.2 in /  1023.9 hPa Calm   1 mph /  1.6 km/h 87 % 0 in /  0.0 mm
21:17 63.7 °F /  17.6 °C 59.4 °F /  15.2 °C 30.2 in /  1023.9 hPa Calm   1 mph /  1.6 km/h 86 % 0 in /  0.0 mm
21:22 63.9 °F /  17.7 °C 59.5 °F /  15.3 °C 30.2 in /  1023.9 hPa Calm   1 mph /  1.6 km/h 86 % 0 in /  0.0 mm
21:32 63.1 °F /  17.3 °C 59.2 °F /  15.1 °C 30.2 in /  1023.9 hPa Calm   2 mph /  3.2 km/h 87 % 0 in /  0.0 mm
21:37 63 °F /  17.2 °C 59 °F /  15.0 °C 30.2 in /  1023.9 hPa Calm   2 mph /  3.2 km/h 87 % 0 in /  0.0 mm
21:42 63 °F /  17.2 °C 59.4 °F /  15.2 °C 30.2 in /  1023.9 hPa NNW 1 mph /  1.6 km/h 2 mph /  3.2 km/h 88 % 0 in /  0.0 mm
21:47 63 °F /  17.2 °C 59.4 °F /  15.2 °C 30.2 in /  1023.9 hPa Calm   1 mph /  1.6 km/h 88 % 0 in /  0.0 mm
21:52 62.8 °F /  17.1 °C 59.2 °F /  15.1 °C 30.2 in /  1023.9 hPa Calm   1 mph /  1.6 km/h 88 % 0 in /  0.0 mm
22:02 62.2 °F /  16.8 °C 59 °F /  15.0 °C 30.2 in /  1023.9 hPa Calm   1 mph /  1.6 km/h 89 % 0 in /  0.0 mm
22:12 62.2 °F /  16.8 °C 59.2 °F /  15.1 °C 30.2 in /  1023.9 hPa North 1 mph /  1.6 km/h 1 mph /  1.6 km/h 90 % 0 in /  0.0 mm
22:17 62.1 °F /  16.7 °C 59.2 °F /  15.1 °C 30.2 in /  1023.9 hPa Calm   1 mph /  1.6 km/h 90 % 0 in /  0.0 mm
22:22 61.9 °F /  16.6 °C 59 °F /  15.0 °C 30.2 in /  1023.9 hPa Calm   2 mph /  3.2 km/h 90 % 0 in /  0.0 mm
22:32 61.7 °F /  16.5 °C 59 °F /  15.0 °C 30.2 in /  1023.9 hPa North 1 mph /  1.6 km/h 2 mph /  3.2 km/h 91 % 0 in /  0.0 mm
22:37 61.7 °F /  16.5 °C 58.8 °F /  14.9 °C 30.2 in /  1023.9 hPa Calm   2 mph /  3.2 km/h 90 % 0 in /  0.0 mm
22:42 61.5 °F /  16.4 °C 58.6 °F /  14.8 °C 30.2 in /  1023.9 hPa Calm   2 mph /  3.2 km/h 90 % 0 in /  0.0 mm
22:47 61.2 °F /  16.2 °C 58.3 °F /  14.6 °C 30.2 in /  1023.9 hPa Calm   2 mph /  3.2 km/h 90 % 0 in /  0.0 mm
22:52 61 °F /  16.1 °C 58.3 °F /  14.6 °C 30.2 in /  1023.9 hPa Calm   1 mph /  1.6 km/h 91 % 0 in /  0.0 mm
22:57 61 °F /  16.1 °C 58.3 °F /  14.6 °C 30.2 in /  1023.9 hPa Calm     91 % 0 in /  0.0 mm
23:02 60.6 °F /  15.9 °C 57.9 °F /  14.4 °C 30.2 in /  1023.9 hPa Calm     91 % 0 in /  0.0 mm
23:07 60.3 °F /  15.7 °C 57.6 °F /  14.2 °C 30.2 in /  1023.9 hPa Calm     91 % 0 in /  0.0 mm
23:12 60.1 °F /  15.6 °C 57.7 °F /  14.3 °C 30.2 in /  1023.9 hPa Calm     92 % 0 in /  0.0 mm
23:17 60.1 °F /  15.6 °C 58.1 °F /  14.5 °C 30.2 in /  1023.9 hPa WNW 1 mph /  1.6 km/h 1 mph /  1.6 km/h 93 % 0 in /  0.0 mm
23:22 60.1 °F /  15.6 °C 58.1 °F /  14.5 °C 30.2 in /  1023.9 hPa NW 1 mph /  1.6 km/h 1 mph /  1.6 km/h 93 % 0 in /  0.0 mm
23:27 60.3 °F /  15.7 °C 58.3 °F /  14.6 °C 30.2 in /  1023.9 hPa North 1 mph /  1.6 km/h 1 mph /  1.6 km/h 93 % 0 in /  0.0 mm
23:32 60.3 °F /  15.7 °C 58.3 °F /  14.6 °C 30.2 in /  1023.9 hPa Calm   2 mph /  3.2 km/h 93 % 0 in /  0.0 mm
23:37 60.1 °F /  15.6 °C 58.1 °F /  14.5 °C 30.2 in /  1023.9 hPa NNE 1 mph /  1.6 km/h 2 mph /  3.2 km/h 93 % 0 in /  0.0 mm
23:42 59.9 °F /  15.5 °C 57.9 °F /  14.4 °C 30.2 in /  1023.9 hPa North 1 mph /  1.6 km/h 2 mph /  3.2 km/h 93 % 0 in /  0.0 mm
23:52 59.5 °F /  15.3 °C 57.6 °F /  14.2 °C 30.2 in /  1023.6 hPa Calm   2 mph /  3.2 km/h 93 % 0 in /  0.0 mm
23:57 59.5 °F /  15.3 °C 57.6 °F /  14.2 °C 30.2 in /  1023.6 hPa Calm   2 mph /  3.2 km/h 93 % 0 in /  0.0 mm
Meteo18
Compliments of Weather Underground - 4 mb

Script developed by  Jim McMurry - jmcmurry@mwt.net Adapted for the template by  Wim van der Kuil - Leuven-Template.eu

You find our weather info also at:

European Weather Network

Weather Underground

Equipment we use:

Weather-station
Davis Vue

Weather-program
Meteohub

Weather-server
Raspberry PI 2 B+

Provider
1 and 1

Davis Vue

Meteohub

Raspberry PI 2 B+

1 and 1